sensor_id;sensor_type;location;lat;lon;timestamp;pressure;altitude;pressure_sealevel;temperature;humidity
34243;BME280;20504;43.214;27.920;2023-07-29T00:00:52;100293.22;;;24.34;100.00
34243;BME280;20504;43.214;27.920;2023-07-29T00:03:17;100307.50;;;24.43;100.00
34243;BME280;20504;43.214;27.920;2023-07-29T00:05:43;100326.88;;;24.25;100.00
34243;BME280;20504;43.214;27.920;2023-07-29T00:08:08;100353.78;;;24.27;100.00
34243;BME280;20504;43.214;27.920;2023-07-29T00:10:36;100355.31;;;24.29;100.00
34243;BME280;20504;43.214;27.920;2023-07-29T00:13:03;100352.84;;;24.34;100.00
34243;BME280;20504;43.214;27.920;2023-07-29T00:15:29;100371.38;;;24.31;100.00
34243;BME280;20504;43.214;27.920;2023-07-29T00:17:54;100389.16;;;24.19;100.00
34243;BME280;20504;43.214;27.920;2023-07-29T00:20:20;100380.88;;;24.41;100.00
34243;BME280;20504;43.214;27.920;2023-07-29T00:22:45;100398.28;;;24.32;100.00
34243;BME280;20504;43.214;27.920;2023-07-29T00:25:11;100423.22;;;24.28;100.00
34243;BME280;20504;43.214;27.920;2023-07-29T00:27:36;100377.69;;;24.02;100.00
34243;BME280;20504;43.214;27.920;2023-07-29T00:30:02;100432.50;;;24.19;100.00
34243;BME280;20504;43.214;27.920;2023-07-29T00:32:29;100449.69;;;24.11;100.00
34243;BME280;20504;43.214;27.920;2023-07-29T00:34:55;100424.44;;;24.25;100.00
34243;BME280;20504;43.214;27.920;2023-07-29T00:37:21;100431.28;;;24.21;100.00
34243;BME280;20504;43.214;27.920;2023-07-29T00:39:46;100447.81;;;24.11;100.00
34243;BME280;20504;43.214;27.920;2023-07-29T00:42:11;100442.03;;;24.00;100.00
34243;BME280;20504;43.214;27.920;2023-07-29T00:44:37;100425.88;;;24.06;100.00
34243;BME280;20504;43.214;27.920;2023-07-29T00:47:04;100443.72;;;23.71;100.00
34243;BME280;20504;43.214;27.920;2023-07-29T00:49:31;100374.06;;;23.65;100.00
34243;BME280;20504;43.214;27.920;2023-07-29T00:51:57;100337.84;;;23.66;100.00
34243;BME280;20504;43.214;27.920;2023-07-29T00:54:23;100261.41;;;23.64;100.00
34243;BME280;20504;43.214;27.920;2023-07-29T00:56:48;100244.13;;;23.65;100.00
34243;BME280;20504;43.214;27.920;2023-07-29T00:59:14;100165.84;;;23.49;100.00
34243;BME280;20504;43.214;27.920;2023-07-29T01:01:40;100104.88;;;23.53;100.00
34243;BME280;20504;43.214;27.920;2023-07-29T01:04:06;100049.38;;;23.42;100.00
34243;BME280;20504;43.214;27.920;2023-07-29T01:06:45;99937.44;;;23.43;100.00
34243;BME280;20504;43.214;27.920;2023-07-29T01:09:29;99785.13;;;23.56;100.00
34243;BME280;20504;43.214;27.920;2023-07-29T01:14:34;99569.03;;;23.46;100.00
34243;BME280;20504;43.214;27.920;2023-07-29T01:17:04;99471.63;;;23.33;100.00
34243;BME280;20504;43.214;27.920;2023-07-29T01:20:07;99363.63;;;23.32;100.00
34243;BME280;20504;43.214;27.920;2023-07-29T01:22:35;99183.28;;;23.12;100.00
34243;BME280;20504;43.214;27.920;2023-07-29T01:25:02;99018.09;;;23.20;100.00
34243;BME280;20504;43.214;27.920;2023-07-29T01:27:29;98931.47;;;23.02;100.00
34243;BME280;20504;43.214;27.920;2023-07-29T01:29:56;98839.16;;;23.23;100.00
34243;BME280;20504;43.214;27.920;2023-07-29T01:32:56;98703.50;;;23.08;100.00
34243;BME280;20504;43.214;27.920;2023-07-29T01:35:34;98646.41;;;22.98;100.00
34243;BME280;20504;43.214;27.920;2023-07-29T01:38:13;98551.53;;;23.06;100.00
34243;BME280;20504;43.214;27.920;2023-07-29T01:40:40;98501.16;;;22.93;100.00
34243;BME280;20504;43.214;27.920;2023-07-29T01:43:06;98427.25;;;23.00;100.00
34243;BME280;20504;43.214;27.920;2023-07-29T01:45:34;98376.03;;;22.75;100.00
34243;BME280;20504;43.214;27.920;2023-07-29T01:48:07;98322.41;;;22.60;100.00
34243;BME280;20504;43.214;27.920;2023-07-29T01:50:33;98271.94;;;22.72;100.00
34243;BME280;20504;43.214;27.920;2023-07-29T01:52:59;98260.34;;;22.83;100.00
34243;BME280;20504;43.214;27.920;2023-07-29T01:55:24;98190.34;;;22.82;100.00
34243;BME280;20504;43.214;27.920;2023-07-29T01:57:50;98122.53;;;22.60;100.00
34243;BME280;20504;43.214;27.920;2023-07-29T02:00:16;98076.38;;;22.61;100.00
34243;BME280;20504;43.214;27.920;2023-07-29T02:02:42;98088.09;;;22.67;100.00
34243;BME280;20504;43.214;27.920;2023-07-29T02:05:07;98125.56;;;22.63;100.00
34243;BME280;20504;43.214;27.920;2023-07-29T02:07:33;98151.16;;;22.49;100.00
34243;BME280;20504;43.214;27.920;2023-07-29T02:09:58;98097.53;;;22.53;100.00
34243;BME280;20504;43.214;27.920;2023-07-29T02:12:24;98076.03;;;22.70;100.00
34243;BME280;20504;43.214;27.920;2023-07-29T02:14:49;98047.63;;;22.55;100.00
34243;BME280;20504;43.214;27.920;2023-07-29T02:17:15;98060.50;;;22.65;100.00
34243;BME280;20504;43.214;27.920;2023-07-29T02:19:40;98032.00;;;22.34;100.00
34243;BME280;20504;43.214;27.920;2023-07-29T02:22:06;98070.13;;;22.49;100.00
34243;BME280;20504;43.214;27.920;2023-07-29T02:24:31;98093.28;;;22.33;100.00
34243;BME280;20504;43.214;27.920;2023-07-29T02:26:57;98064.41;;;22.34;100.00
34243;BME280;20504;43.214;27.920;2023-07-29T02:29:22;98030.00;;;22.18;100.00
34243;BME280;20504;43.214;27.920;2023-07-29T02:31:48;97948.06;;;22.24;100.00
34243;BME280;20504;43.214;27.920;2023-07-29T02:34:14;97908.31;;;22.08;100.00
34243;BME280;20504;43.214;27.920;2023-07-29T02:36:39;97881.66;;;21.99;100.00
34243;BME280;20504;43.214;27.920;2023-07-29T02:39:05;97770.44;;;21.97;100.00
34243;BME280;20504;43.214;27.920;2023-07-29T02:41:31;97720.25;;;21.96;100.00
34243;BME280;20504;43.214;27.920;2023-07-29T02:43:56;97583.44;;;22.09;100.00
34243;BME280;20504;43.214;27.920;2023-07-29T02:46:22;97523.56;;;21.95;100.00
34243;BME280;20504;43.214;27.920;2023-07-29T02:48:47;97551.53;;;22.05;100.00
34243;BME280;20504;43.214;27.920;2023-07-29T02:51:13;97617.44;;;22.10;100.00
34243;BME280;20504;43.214;27.920;2023-07-29T02:53:39;97616.47;;;21.87;100.00
34243;BME280;20504;43.214;27.920;2023-07-29T02:56:05;97639.94;;;21.87;100.00
34243;BME280;20504;43.214;27.920;2023-07-29T02:58:31;97602.00;;;21.93;100.00
34243;BME280;20504;43.214;27.920;2023-07-29T03:01:01;97550.38;;;22.01;100.00
34243;BME280;20504;43.214;27.920;2023-07-29T03:03:28;97479.78;;;21.93;100.00
34243;BME280;20504;43.214;27.920;2023-07-29T03:06:09;97466.31;;;21.76;100.00
34243;BME280;20504;43.214;27.920;2023-07-29T03:08:35;97406.50;;;21.96;100.00
34243;BME280;20504;43.214;27.920;2023-07-29T03:11:08;97345.00;;;21.98;100.00
34243;BME280;20504;43.214;27.920;2023-07-29T03:13:34;97232.38;;;21.88;100.00
34243;BME280;20504;43.214;27.920;2023-07-29T03:18:31;97193.38;;;21.96;100.00
34243;BME280;20504;43.214;27.920;2023-07-29T03:20:57;97132.63;;;21.93;100.00
34243;BME280;20504;43.214;27.920;2023-07-29T03:23:22;97091.13;;;21.94;100.00
34243;BME280;20504;43.214;27.920;2023-07-29T03:25:50;97024.28;;;22.01;100.00
34243;BME280;20504;43.214;27.920;2023-07-29T03:28:18;97029.22;;;22.10;100.00
34243;BME280;20504;43.214;27.920;2023-07-29T03:30:43;97097.63;;;21.98;100.00
34243;BME280;20504;43.214;27.920;2023-07-29T03:33:09;97122.22;;;22.02;100.00
34243;BME280;20504;43.214;27.920;2023-07-29T03:35:34;97113.78;;;22.20;100.00
34243;BME280;20504;43.214;27.920;2023-07-29T03:38:00;97101.19;;;22.04;100.00
34243;BME280;20504;43.214;27.920;2023-07-29T03:40:25;97187.03;;;22.07;100.00
34243;BME280;20504;43.214;27.920;2023-07-29T03:42:51;97240.03;;;22.13;100.00
34243;BME280;20504;43.214;27.920;2023-07-29T03:45:16;97201.72;;;22.16;100.00
34243;BME280;20504;43.214;27.920;2023-07-29T03:47:42;97254.72;;;22.27;100.00
34243;BME280;20504;43.214;27.920;2023-07-29T03:50:08;97356.38;;;22.39;100.00
34243;BME280;20504;43.214;27.920;2023-07-29T03:52:33;97363.59;;;22.55;100.00
34243;BME280;20504;43.214;27.920;2023-07-29T03:54:59;97454.28;;;22.51;100.00
34243;BME280;20504;43.214;27.920;2023-07-29T03:57:24;97564.22;;;22.39;100.00
34243;BME280;20504;43.214;27.920;2023-07-29T03:59:50;97615.91;;;22.47;100.00
34243;BME280;20504;43.214;27.920;2023-07-29T04:02:15;97747.94;;;22.60;100.00
34243;BME280;20504;43.214;27.920;2023-07-29T04:04:40;97804.94;;;22.76;100.00
34243;BME280;20504;43.214;27.920;2023-07-29T04:07:07;97922.00;;;22.81;100.00
34243;BME280;20504;43.214;27.920;2023-07-29T04:09:33;98039.03;;;22.93;100.00
34243;BME280;20504;43.214;27.920;2023-07-29T04:11:58;98132.31;;;22.96;100.00
34243;BME280;20504;43.214;27.920;2023-07-29T04:14:24;98260.41;;;23.07;100.00
34243;BME280;20504;43.214;27.920;2023-07-29T04:16:49;98398.75;;;22.85;100.00
34243;BME280;20504;43.214;27.920;2023-07-29T04:19:15;98470.63;;;23.05;100.00
34243;BME280;20504;43.214;27.920;2023-07-29T04:21:40;98539.41;;;23.27;100.00
34243;BME280;20504;43.214;27.920;2023-07-29T04:24:06;98605.41;;;23.19;100.00
34243;BME280;20504;43.214;27.920;2023-07-29T04:26:31;98683.00;;;23.37;100.00
34243;BME280;20504;43.214;27.920;2023-07-29T04:28:56;98828.78;;;23.20;100.00
34243;BME280;20504;43.214;27.920;2023-07-29T04:31:23;98873.63;;;23.35;100.00
34243;BME280;20504;43.214;27.920;2023-07-29T04:33:48;98868.53;;;23.45;100.00
34243;BME280;20504;43.214;27.920;2023-07-29T04:36:14;98908.09;;;23.71;100.00
34243;BME280;20504;43.214;27.920;2023-07-29T04:38:39;98965.72;;;23.96;100.00
34243;BME280;20504;43.214;27.920;2023-07-29T04:41:05;99104.22;;;24.00;100.00
34243;BME280;20504;43.214;27.920;2023-07-29T04:43:32;99258.13;;;24.03;100.00
34243;BME280;20504;43.214;27.920;2023-07-29T04:45:58;99316.53;;;23.72;100.00
34243;BME280;20504;43.214;27.920;2023-07-29T04:48:23;99348.59;;;23.75;100.00
34243;BME280;20504;43.214;27.920;2023-07-29T04:50:49;99443.47;;;24.13;100.00
34243;BME280;20504;43.214;27.920;2023-07-29T04:53:14;99437.28;;;24.00;100.00
34243;BME280;20504;43.214;27.920;2023-07-29T04:55:43;99513.28;;;24.18;100.00
34243;BME280;20504;43.214;27.920;2023-07-29T04:58:09;99532.22;;;24.11;100.00
34243;BME280;20504;43.214;27.920;2023-07-29T05:00:34;99562.03;;;24.31;100.00
34243;BME280;20504;43.214;27.920;2023-07-29T05:02:59;99531.19;;;24.32;100.00
34243;BME280;20504;43.214;27.920;2023-07-29T05:05:26;99578.59;;;24.81;100.00
34243;BME280;20504;43.214;27.920;2023-07-29T05:07:52;99664.53;;;24.67;100.00
34243;BME280;20504;43.214;27.920;2023-07-29T05:10:17;99708.13;;;24.66;100.00
34243;BME280;20504;43.214;27.920;2023-07-29T05:12:43;99683.88;;;24.91;100.00
34243;BME280;20504;43.214;27.920;2023-07-29T05:15:09;99681.59;;;25.08;100.00
34243;BME280;20504;43.214;27.920;2023-07-29T05:17:34;99754.97;;;25.39;100.00
34243;BME280;20504;43.214;27.920;2023-07-29T05:20:00;99831.19;;;25.38;100.00
34243;BME280;20504;43.214;27.920;2023-07-29T05:22:25;99890.22;;;25.75;100.00
34243;BME280;20504;43.214;27.920;2023-07-29T05:24:51;99946.00;;;25.78;100.00
34243;BME280;20504;43.214;27.920;2023-07-29T05:27:16;99962.47;;;25.96;100.00
34243;BME280;20504;43.214;27.920;2023-07-29T05:29:42;100051.50;;;25.94;100.00
34243;BME280;20504;43.214;27.920;2023-07-29T05:32:07;100096.63;;;25.95;100.00
34243;BME280;20504;43.214;27.920;2023-07-29T05:34:33;100137.59;;;26.20;100.00
34243;BME280;20504;43.214;27.920;2023-07-29T05:36:58;100179.41;;;26.06;100.00
34243;BME280;20504;43.214;27.920;2023-07-29T05:39:24;100168.31;;;26.20;100.00
34243;BME280;20504;43.214;27.920;2023-07-29T05:41:49;100212.66;;;26.27;100.00
34243;BME280;20504;43.214;27.920;2023-07-29T05:44:15;100167.31;;;26.48;100.00
34243;BME280;20504;43.214;27.920;2023-07-29T05:46:40;100286.50;;;26.38;100.00
34243;BME280;20504;43.214;27.920;2023-07-29T05:49:06;100257.66;;;26.56;100.00
34243;BME280;20504;43.214;27.920;2023-07-29T05:51:31;100327.97;;;26.60;100.00
34243;BME280;20504;43.214;27.920;2023-07-29T05:53:56;100318.53;;;26.89;100.00
34243;BME280;20504;43.214;27.920;2023-07-29T05:56:22;100463.78;;;26.94;100.00
34243;BME280;20504;43.214;27.920;2023-07-29T05:58:47;100464.28;;;27.24;100.00
34243;BME280;20504;43.214;27.920;2023-07-29T06:01:13;100532.56;;;27.36;100.00
34243;BME280;20504;43.214;27.920;2023-07-29T06:03:38;100617.44;;;27.59;100.00
34243;BME280;20504;43.214;27.920;2023-07-29T06:06:04;100676.78;;;27.70;100.00
34243;BME280;20504;43.214;27.920;2023-07-29T06:08:29;100714.16;;;27.96;100.00
34243;BME280;20504;43.214;27.920;2023-07-29T06:10:55;100775.34;;;27.87;100.00
34243;BME280;20504;43.214;27.920;2023-07-29T06:13:20;100834.66;;;27.85;100.00
34243;BME280;20504;43.214;27.920;2023-07-29T06:15:46;100860.72;;;28.01;100.00
34243;BME280;20504;43.214;27.920;2023-07-29T06:18:11;100858.63;;;28.03;100.00
34243;BME280;20504;43.214;27.920;2023-07-29T06:20:37;100896.94;;;28.36;100.00
34243;BME280;20504;43.214;27.920;2023-07-29T06:23:03;100912.16;;;28.24;100.00
34243;BME280;20504;43.214;27.920;2023-07-29T06:25:29;100974.78;;;27.97;100.00
34243;BME280;20504;43.214;27.920;2023-07-29T06:27:54;100993.66;;;28.33;100.00
34243;BME280;20504;43.214;27.920;2023-07-29T06:30:20;100952.97;;;28.39;100.00
34243;BME280;20504;43.214;27.920;2023-07-29T06:32:45;100969.53;;;28.44;100.00
34243;BME280;20504;43.214;27.920;2023-07-29T06:35:10;100943.84;;;28.18;100.00
34243;BME280;20504;43.214;27.920;2023-07-29T06:37:36;100903.91;;;28.45;100.00
34243;BME280;20504;43.214;27.920;2023-07-29T06:40:01;100955.69;;;28.39;100.00
34243;BME280;20504;43.214;27.920;2023-07-29T06:42:27;100953.06;;;28.85;100.00
34243;BME280;20504;43.214;27.920;2023-07-29T06:44:52;101016.75;;;29.18;100.00
34243;BME280;20504;43.214;27.920;2023-07-29T06:47:18;101057.75;;;29.32;100.00
34243;BME280;20504;43.214;27.920;2023-07-29T06:49:45;101087.63;;;29.46;100.00
34243;BME280;20504;43.214;27.920;2023-07-29T06:52:10;101089.47;;;29.19;100.00
34243;BME280;20504;43.214;27.920;2023-07-29T06:54:36;101121.44;;;29.39;100.00
34243;BME280;20504;43.214;27.920;2023-07-29T06:57:01;101135.13;;;29.52;100.00
34243;BME280;20504;43.214;27.920;2023-07-29T06:59:28;101138.28;;;29.55;100.00
34243;BME280;20504;43.214;27.920;2023-07-29T07:01:54;101164.81;;;29.68;100.00
34243;BME280;20504;43.214;27.920;2023-07-29T07:04:25;101175.53;;;29.70;100.00
34243;BME280;20504;43.214;27.920;2023-07-29T07:06:51;101223.66;;;29.64;100.00
34243;BME280;20504;43.214;27.920;2023-07-29T07:09:16;101195.53;;;29.83;100.00
34243;BME280;20504;43.214;27.920;2023-07-29T07:11:42;101217.63;;;30.02;100.00
34243;BME280;20504;43.214;27.920;2023-07-29T07:14:08;101225.22;;;30.20;100.00
34243;BME280;20504;43.214;27.920;2023-07-29T07:16:33;101232.78;;;30.37;100.00
34243;BME280;20504;43.214;27.920;2023-07-29T07:19:01;101241.19;;;30.29;100.00
34243;BME280;20504;43.214;27.920;2023-07-29T07:21:27;101247.09;;;30.53;100.00
34243;BME280;20504;43.214;27.920;2023-07-29T07:23:52;101286.03;;;30.55;100.00
34243;BME280;20504;43.214;27.920;2023-07-29T07:26:18;101300.78;;;30.73;100.00
34243;BME280;20504;43.214;27.920;2023-07-29T07:28:43;101312.56;;;30.54;100.00
34243;BME280;20504;43.214;27.920;2023-07-29T07:31:08;101286.28;;;30.73;100.00
34243;BME280;20504;43.214;27.920;2023-07-29T07:33:34;101309.47;;;31.42;100.00
34243;BME280;20504;43.214;27.920;2023-07-29T07:35:59;101338.16;;;31.39;100.00
34243;BME280;20504;43.214;27.920;2023-07-29T07:38:25;101311.59;;;31.40;100.00
34243;BME280;20504;43.214;27.920;2023-07-29T07:40:54;101370.84;;;31.47;100.00
34243;BME280;20504;43.214;27.920;2023-07-29T07:43:20;101377.41;;;31.33;100.00
34243;BME280;20504;43.214;27.920;2023-07-29T07:45:46;101367.81;;;31.62;100.00
34243;BME280;20504;43.214;27.920;2023-07-29T07:48:11;101362.97;;;31.64;100.00
34243;BME280;20504;43.214;27.920;2023-07-29T07:50:38;101361.72;;;31.53;100.00
34243;BME280;20504;43.214;27.920;2023-07-29T07:53:04;101319.03;;;31.77;100.00
34243;BME280;20504;43.214;27.920;2023-07-29T07:55:30;101273.69;;;31.81;100.00
34243;BME280;20504;43.214;27.920;2023-07-29T07:57:55;100915.50;;;31.99;100.00
34243;BME280;20504;43.214;27.920;2023-07-29T08:00:20;100574.19;;;31.83;100.00
34243;BME280;20504;43.214;27.920;2023-07-29T08:02:46;100176.28;;;31.96;100.00
34243;BME280;20504;43.214;27.920;2023-07-29T08:05:12;99719.50;;;32.00;100.00
34243;BME280;20504;43.214;27.920;2023-07-29T08:07:37;99221.09;;;32.33;100.00
34243;BME280;20504;43.214;27.920;2023-07-29T08:10:03;99046.13;;;32.30;100.00
34243;BME280;20504;43.214;27.920;2023-07-29T08:12:28;99400.03;;;32.50;100.00
34243;BME280;20504;43.214;27.920;2023-07-29T08:14:54;100150.97;;;32.56;100.00
34243;BME280;20504;43.214;27.920;2023-07-29T08:17:19;99994.94;;;32.92;100.00
34243;BME280;20504;43.214;27.920;2023-07-29T08:19:45;99293.88;;;32.61;100.00
34243;BME280;20504;43.214;27.920;2023-07-29T08:22:10;99132.22;;;32.64;100.00
34243;BME280;20504;43.214;27.920;2023-07-29T08:24:36;99062.81;;;32.59;100.00
34243;BME280;20504;43.214;27.920;2023-07-29T08:27:01;98935.94;;;32.82;100.00
34243;BME280;20504;43.214;27.920;2023-07-29T08:29:27;98748.97;;;32.89;100.00
34243;BME280;20504;43.214;27.920;2023-07-29T08:31:52;98497.53;;;33.11;100.00
34243;BME280;20504;43.214;27.920;2023-07-29T08:34:18;98360.75;;;32.95;100.00
34243;BME280;20504;43.214;27.920;2023-07-29T08:36:43;98253.63;;;32.62;100.00
34243;BME280;20504;43.214;27.920;2023-07-29T08:39:09;98111.38;;;32.69;100.00
34243;BME280;20504;43.214;27.920;2023-07-29T08:41:41;98042.59;;;32.66;100.00
34243;BME280;20504;43.214;27.920;2023-07-29T08:44:15;97980.19;;;32.71;100.00
34243;BME280;20504;43.214;27.920;2023-07-29T08:46:43;97952.25;;;32.69;100.00
34243;BME280;20504;43.214;27.920;2023-07-29T08:49:09;97849.22;;;32.63;100.00
34243;BME280;20504;43.214;27.920;2023-07-29T08:51:36;97860.50;;;32.20;100.00
34243;BME280;20504;43.214;27.920;2023-07-29T08:54:03;97820.19;;;32.48;100.00
34243;BME280;20504;43.214;27.920;2023-07-29T08:56:29;97823.03;;;32.30;100.00
34243;BME280;20504;43.214;27.920;2023-07-29T08:58:55;97822.53;;;31.68;100.00
34243;BME280;20504;43.214;27.920;2023-07-29T09:01:21;97754.94;;;31.49;100.00
34243;BME280;20504;43.214;27.920;2023-07-29T09:06:16;97919.25;;;31.49;100.00
34243;BME280;20504;43.214;27.920;2023-07-29T09:08:43;97756.25;;;31.19;100.00
34243;BME280;20504;43.214;27.920;2023-07-29T09:11:13;97697.53;;;31.12;100.00
34243;BME280;20504;43.214;27.920;2023-07-29T09:13:39;97443.78;;;31.53;100.00
34243;BME280;20504;43.214;27.920;2023-07-29T09:16:06;97379.31;;;31.47;100.00
34243;BME280;20504;43.214;27.920;2023-07-29T09:18:31;97358.19;;;31.92;100.00
34243;BME280;20504;43.214;27.920;2023-07-29T09:21:00;97619.44;;;32.38;100.00
34243;BME280;20504;43.214;27.920;2023-07-29T09:23:26;97543.47;;;32.69;100.00
34243;BME280;20504;43.214;27.920;2023-07-29T09:26:01;97548.09;;;32.82;100.00
34243;BME280;20504;43.214;27.920;2023-07-29T09:28:33;97522.44;;;32.11;100.00
34243;BME280;20504;43.214;27.920;2023-07-29T09:30:59;97392.44;;;32.66;100.00
34243;BME280;20504;43.214;27.920;2023-07-29T09:33:26;97403.69;;;32.56;100.00
34243;BME280;20504;43.214;27.920;2023-07-29T09:35:52;97314.22;;;32.86;100.00
34243;BME280;20504;43.214;27.920;2023-07-29T09:38:17;97293.06;;;32.77;100.00
34243;BME280;20504;43.214;27.920;2023-07-29T09:40:43;97320.91;;;33.36;100.00
34243;BME280;20504;43.214;27.920;2023-07-29T09:43:10;97541.84;;;33.30;100.00
34243;BME280;20504;43.214;27.920;2023-07-29T09:45:36;97552.09;;;33.56;100.00
34243;BME280;20504;43.214;27.920;2023-07-29T09:48:04;97528.72;;;33.27;100.00
34243;BME280;20504;43.214;27.920;2023-07-29T09:50:35;97552.78;;;33.22;100.00
34243;BME280;20504;43.214;27.920;2023-07-29T09:53:02;97559.00;;;32.96;100.00
34243;BME280;20504;43.214;27.920;2023-07-29T09:55:28;97500.72;;;33.65;100.00
34243;BME280;20504;43.214;27.920;2023-07-29T09:57:57;97568.94;;;33.71;100.00
34243;BME280;20504;43.214;27.920;2023-07-29T10:00:27;97641.47;;;33.62;100.00
34243;BME280;20504;43.214;27.920;2023-07-29T10:02:53;97644.38;;;33.65;100.00
34243;BME280;20504;43.214;27.920;2023-07-29T10:05:19;97727.34;;;33.14;100.00
34243;BME280;20504;43.214;27.920;2023-07-29T10:07:46;97541.34;;;32.89;100.00
34243;BME280;20504;43.214;27.920;2023-07-29T10:10:12;97442.22;;;32.90;100.00
34243;BME280;20504;43.214;27.920;2023-07-29T10:12:39;97253.47;;;32.44;100.00
34243;BME280;20504;43.214;27.920;2023-07-29T10:15:06;96631.28;;;33.01;100.00
34243;BME280;20504;43.214;27.920;2023-07-29T10:17:36;96596.34;;;32.36;100.00
34243;BME280;20504;43.214;27.920;2023-07-29T10:20:07;96082.19;;;32.10;100.00
34243;BME280;20504;43.214;27.920;2023-07-29T10:22:36;96732.97;;;31.70;100.00
34243;BME280;20504;43.214;27.920;2023-07-29T10:25:09;96423.31;;;31.33;100.00
34243;BME280;20504;43.214;27.920;2023-07-29T10:27:43;95996.22;;;31.50;100.00
34243;BME280;20504;43.214;27.920;2023-07-29T10:30:10;96271.84;;;31.50;100.00
34243;BME280;20504;43.214;27.920;2023-07-29T10:32:38;96529.91;;;31.59;100.00
34243;BME280;20504;43.214;27.920;2023-07-29T10:35:04;96948.34;;;31.48;100.00
34243;BME280;20504;43.214;27.920;2023-07-29T10:37:30;97130.50;;;31.54;100.00
34243;BME280;20504;43.214;27.920;2023-07-29T10:39:55;97481.00;;;31.54;100.00
34243;BME280;20504;43.214;27.920;2023-07-29T10:42:21;97814.50;;;30.87;100.00
34243;BME280;20504;43.214;27.920;2023-07-29T10:44:47;98102.69;;;31.30;100.00
34243;BME280;20504;43.214;27.920;2023-07-29T10:47:22;98376.88;;;31.48;100.00
34243;BME280;20504;43.214;27.920;2023-07-29T10:49:56;98900.03;;;31.27;100.00
34243;BME280;20504;43.214;27.920;2023-07-29T10:52:51;99085.50;;;31.52;100.00
34243;BME280;20504;43.214;27.920;2023-07-29T10:55:35;99240.19;;;31.87;100.00
34243;BME280;20504;43.214;27.920;2023-07-29T10:58:07;99381.84;;;32.34;100.00
34243;BME280;20504;43.214;27.920;2023-07-29T11:00:32;99544.06;;;32.42;100.00
34243;BME280;20504;43.214;27.920;2023-07-29T11:03:03;99715.69;;;32.01;100.00
34243;BME280;20504;43.214;27.920;2023-07-29T11:08:29;99749.72;;;32.59;100.00
34243;BME280;20504;43.214;27.920;2023-07-29T11:13:27;99776.03;;;32.55;100.00
34243;BME280;20504;43.214;27.920;2023-07-29T11:15:54;99775.16;;;32.81;100.00
34243;BME280;20504;43.214;27.920;2023-07-29T11:18:20;99780.78;;;32.97;100.00
34243;BME280;20504;43.214;27.920;2023-07-29T11:20:46;99810.78;;;33.08;100.00
34243;BME280;20504;43.214;27.920;2023-07-29T11:23:13;99818.19;;;33.08;100.00
34243;BME280;20504;43.214;27.920;2023-07-29T11:25:39;99805.75;;;32.95;100.00
34243;BME280;20504;43.214;27.920;2023-07-29T11:28:04;99765.00;;;33.24;100.00
34243;BME280;20504;43.214;27.920;2023-07-29T11:30:30;99762.25;;;33.19;100.00
34243;BME280;20504;43.214;27.920;2023-07-29T11:32:57;99736.63;;;33.08;100.00
34243;BME280;20504;43.214;27.920;2023-07-29T11:35:23;99727.09;;;33.26;100.00
34243;BME280;20504;43.214;27.920;2023-07-29T11:37:50;99673.41;;;33.56;100.00
34243;BME280;20504;43.214;27.920;2023-07-29T11:40:17;99685.00;;;33.73;100.00
34243;BME280;20504;43.214;27.920;2023-07-29T11:42:44;99622.66;;;34.40;100.00
34243;BME280;20504;43.214;27.920;2023-07-29T11:45:10;99653.44;;;34.01;100.00
34243;BME280;20504;43.214;27.920;2023-07-29T11:47:36;99560.06;;;34.96;100.00
34243;BME280;20504;43.214;27.920;2023-07-29T11:50:10;99290.41;;;35.76;100.00
34243;BME280;20504;43.214;27.920;2023-07-29T11:52:40;98328.22;;;36.42;100.00
34243;BME280;20504;43.214;27.920;2023-07-29T11:55:06;95052.63;;;36.93;100.00
34243;BME280;20504;43.214;27.920;2023-07-29T11:57:39;94304.38;;;37.72;100.00
34243;BME280;20504;43.214;27.920;2023-07-29T12:00:09;93445.56;;;38.19;100.00
34243;BME280;20504;43.214;27.920;2023-07-29T12:02:40;94340.34;;;39.36;100.00
34243;BME280;20504;43.214;27.920;2023-07-29T12:05:07;95724.38;;;39.35;100.00
34243;BME280;20504;43.214;27.920;2023-07-29T12:07:33;96544.31;;;40.31;100.00
34243;BME280;20504;43.214;27.920;2023-07-29T12:09:58;97322.06;;;40.47;100.00
34243;BME280;20504;43.214;27.920;2023-07-29T12:12:24;97626.38;;;39.34;100.00
34243;BME280;20504;43.214;27.920;2023-07-29T12:14:49;97780.13;;;39.53;100.00
34243;BME280;20504;43.214;27.920;2023-07-29T12:17:15;98144.25;;;40.06;100.00
34243;BME280;20504;43.214;27.920;2023-07-29T12:19:42;98579.19;;;40.83;100.00
34243;BME280;20504;43.214;27.920;2023-07-29T12:22:09;98913.53;;;40.96;100.00
34243;BME280;20504;43.214;27.920;2023-07-29T12:24:37;99046.63;;;40.60;100.00
34243;BME280;20504;43.214;27.920;2023-07-29T12:27:03;99256.34;;;41.26;100.00
34243;BME280;20504;43.214;27.920;2023-07-29T12:29:29;99329.13;;;41.84;100.00
34243;BME280;20504;43.214;27.920;2023-07-29T12:32:00;99607.16;;;42.11;100.00
34243;BME280;20504;43.214;27.920;2023-07-29T12:34:27;99701.75;;;41.51;100.00
34243;BME280;20504;43.214;27.920;2023-07-29T12:36:54;99807.56;;;41.28;100.00
34243;BME280;20504;43.214;27.920;2023-07-29T12:39:30;99882.06;;;41.40;100.00
34243;BME280;20504;43.214;27.920;2023-07-29T12:41:57;99957.84;;;41.45;100.00
34243;BME280;20504;43.214;27.920;2023-07-29T12:44:25;100044.63;;;41.11;100.00
34243;BME280;20504;43.214;27.920;2023-07-29T12:46:50;100146.94;;;41.28;100.00
34243;BME280;20504;43.214;27.920;2023-07-29T12:49:16;100166.50;;;41.95;100.00